createdAt,value
2024-05-09T00:00:39.086Z,11.21
2024-05-09T00:03:08.613Z,11.11
2024-05-09T00:05:36.821Z,10.95
2024-05-09T00:08:04.326Z,10.86
2024-05-09T00:10:36.374Z,10.63
2024-05-09T00:13:05.877Z,10.90
2024-05-09T00:15:33.609Z,10.71
2024-05-09T00:18:00.679Z,10.86
2024-05-09T00:20:35.974Z,10.74
2024-05-09T00:23:07.571Z,10.64
2024-05-09T00:25:34.866Z,10.69
2024-05-09T00:28:01.793Z,10.43
2024-05-09T00:30:34.048Z,10.60
2024-05-09T00:33:04.389Z,10.69
2024-05-09T00:35:31.782Z,10.53
2024-05-09T00:37:58.427Z,10.61
2024-05-09T00:40:35.324Z,10.37
2024-05-09T00:43:06.449Z,10.53
2024-05-09T00:45:34.407Z,10.47
2024-05-09T00:48:05.093Z,10.28
2024-05-09T00:50:36.842Z,10.29
2024-05-09T00:53:06.748Z,10.26
2024-05-09T00:55:37.262Z,10.22
2024-05-09T00:58:06.018Z,10.38
2024-05-09T01:00:38.879Z,10.29
2024-05-09T01:03:09.044Z,10.34
2024-05-09T01:05:39.075Z,10.14
2024-05-09T01:08:06.594Z,10.10
2024-05-09T01:10:36.608Z,10.16
2024-05-09T01:13:04.741Z,10.04
2024-05-09T01:15:31.523Z,9.88
2024-05-09T01:18:00.786Z,10.10
2024-05-09T01:20:37.239Z,9.95
2024-05-09T01:23:09.724Z,9.64
2024-05-09T01:25:36.689Z,9.87
2024-05-09T01:28:03.784Z,9.90
2024-05-09T01:30:34.979Z,9.70
2024-05-09T01:33:04.655Z,9.81
2024-05-09T01:35:31.817Z,9.80
2024-05-09T01:37:58.568Z,9.84
2024-05-09T01:40:33.921Z,9.55
2024-05-09T01:43:04.961Z,9.41
2024-05-09T01:45:31.511Z,9.61
2024-05-09T01:47:58.684Z,9.36
2024-05-09T01:50:36.718Z,9.46
2024-05-09T01:53:07.021Z,9.43
2024-05-09T01:55:33.708Z,9.54
2024-05-09T01:58:00.326Z,9.42
2024-05-09T02:00:37.693Z,9.40
2024-05-09T02:03:12.059Z,9.56
2024-05-09T02:05:42.315Z,9.32
2024-05-09T02:08:13.902Z,9.53
2024-05-09T02:10:40.613Z,9.44
2024-05-09T02:13:09.835Z,9.37
2024-05-09T02:15:36.436Z,9.40
2024-05-09T02:18:03.254Z,9.30
2024-05-09T02:20:35.918Z,9.29
2024-05-09T02:23:05.281Z,9.36
2024-05-09T02:25:32.586Z,9.31
2024-05-09T02:28:02.479Z,9.23
2024-05-09T02:30:38.345Z,9.11
2024-05-09T02:46:43.351Z,7.53
2024-05-09T02:49:11.973Z,8.00
2024-05-09T02:51:38.806Z,7.86
2024-05-09T02:54:07.706Z,8.17
2024-05-09T02:56:34.409Z,8.38
2024-05-09T02:59:01.160Z,8.39
2024-05-09T03:01:27.895Z,8.37
2024-05-09T03:03:54.629Z,8.59
2024-05-09T03:06:21.435Z,8.34
2024-05-09T03:08:48.121Z,8.46
2024-05-09T03:11:22.664Z,8.28
2024-05-09T03:13:53.188Z,8.53
2024-05-09T03:16:26.302Z,8.18
2024-05-09T03:18:54.760Z,8.32
2024-05-09T03:21:21.976Z,8.50
2024-05-09T03:23:48.719Z,8.50
2024-05-09T03:26:16.246Z,8.33
2024-05-09T03:28:43.741Z,8.16
2024-05-09T03:31:10.759Z,8.14
2024-05-09T03:33:40.828Z,8.05
2024-05-09T03:36:10.526Z,8.36
2024-05-09T03:38:38.928Z,8.27
2024-05-09T03:41:05.748Z,8.34
2024-05-09T03:43:32.754Z,8.37
2024-05-09T03:45:59.636Z,8.35
2024-05-09T03:48:26.924Z,8.26
2024-05-09T03:50:54.062Z,8.28
2024-05-09T03:53:20.982Z,8.23
2024-05-09T03:55:47.944Z,7.90
2024-05-09T03:58:16.208Z,8.34
2024-05-09T04:00:46.240Z,8.13
2024-05-09T04:03:13.650Z,8.20
2024-05-09T04:05:45.990Z,8.41
2024-05-09T04:08:18.825Z,8.31
2024-05-09T04:10:48.486Z,8.54
2024-05-09T04:13:21.587Z,8.38
2024-05-09T04:15:50.392Z,8.44
2024-05-09T04:18:18.284Z,8.45
2024-05-09T04:20:48.419Z,8.35
2024-05-09T04:23:17.213Z,8.63
2024-05-09T04:25:47.805Z,8.57
2024-05-09T04:28:14.832Z,8.60
2024-05-09T04:30:42.537Z,8.64
2024-05-09T04:33:12.461Z,8.49
2024-05-09T04:35:44.582Z,8.69
2024-05-09T04:38:22.129Z,8.70
2024-05-09T04:40:51.556Z,8.75
2024-05-09T04:43:21.813Z,8.63
2024-05-09T04:45:51.824Z,8.79
2024-05-09T04:48:21.915Z,8.89
2024-05-09T04:50:49.125Z,8.90
2024-05-09T04:53:18.776Z,8.96
2024-05-09T04:55:45.859Z,8.89
2024-05-09T04:58:12.991Z,9.17
2024-05-09T05:00:41.147Z,9.15
2024-05-09T05:03:12.878Z,9.09
2024-05-09T05:05:42.087Z,9.28
2024-05-09T05:08:12.883Z,9.42
2024-05-09T05:10:47.171Z,9.56
2024-05-09T05:13:23.829Z,9.42
2024-05-09T05:15:58.461Z,9.41
2024-05-09T05:18:28.083Z,9.54
2024-05-09T05:20:56.678Z,9.09
2024-05-09T05:23:24.610Z,9.55
2024-05-09T05:28:38.867Z,9.69
2024-05-09T05:31:05.676Z,9.68
2024-05-09T05:33:32.415Z,9.72
2024-05-09T05:35:59.425Z,9.70
2024-05-09T05:38:28.327Z,9.75
2024-05-09T05:40:56.040Z,9.90
2024-05-09T05:43:23.042Z,9.93
2024-05-09T05:45:49.711Z,9.91
2024-05-09T05:48:17.760Z,10.06
2024-05-09T05:50:45.324Z,9.94
2024-05-09T05:53:12.270Z,10.00
2024-05-09T05:55:40.919Z,10.22
2024-05-09T05:58:11.897Z,10.15
2024-05-09T06:00:41.702Z,10.05
2024-05-09T06:03:10.505Z,10.26
2024-05-09T06:05:40.498Z,10.45
2024-05-09T06:08:08.026Z,10.42
2024-05-09T06:10:40.022Z,10.48
2024-05-09T06:13:13.340Z,10.54
2024-05-09T06:15:56.946Z,10.67
2024-05-09T06:18:30.247Z,10.60
2024-05-09T06:21:02.193Z,11.00
2024-05-09T06:23:37.000Z,11.05
2024-05-09T06:27:07.779Z,10.96
2024-05-09T06:29:42.320Z,10.87
2024-05-09T06:32:16.075Z,10.99
2024-05-09T06:35:27.412Z,11.03
2024-05-09T06:38:07.687Z,11.39
2024-05-09T06:41:01.256Z,11.50
2024-05-09T06:43:42.301Z,11.63
2024-05-09T06:46:30.703Z,11.78
2024-05-09T06:49:08.685Z,11.93
2024-05-09T06:52:36.575Z,12.05
2024-05-09T06:55:03.530Z,12.50
2024-05-09T06:57:31.021Z,12.61
2024-05-09T07:00:00.771Z,12.72
2024-05-09T07:02:28.133Z,12.69
2024-05-09T07:04:55.096Z,12.78
2024-05-09T07:07:21.758Z,12.98
2024-05-09T07:10:21.639Z,13.54
2024-05-09T07:12:52.338Z,13.58
2024-05-09T07:15:18.954Z,13.90
2024-05-09T07:17:45.666Z,13.88
2024-05-09T07:20:19.874Z,13.60
2024-05-09T07:22:53.660Z,14.06
2024-05-09T07:25:20.245Z,14.54
2024-05-09T07:27:46.850Z,14.38
2024-05-09T07:30:19.975Z,14.53
2024-05-09T07:32:50.248Z,15.08
2024-05-09T07:35:16.941Z,14.69
2024-05-09T07:37:43.614Z,14.95
2024-05-09T07:42:38.625Z,14.72
2024-05-09T07:45:21.555Z,15.03
2024-05-09T07:49:35.268Z,15.14
2024-05-09T07:53:36.908Z,14.75
2024-05-09T07:55:56.809Z,14.73
2024-05-09T07:58:29.204Z,15.94
2024-05-09T08:00:55.981Z,16.43
2024-05-09T08:03:23.264Z,17.39
2024-05-09T08:05:51.834Z,16.70
2024-05-09T08:08:18.534Z,17.20
2024-05-09T08:10:45.292Z,17.03
2024-05-09T08:13:12.031Z,16.95
2024-05-09T08:15:39.165Z,17.02
2024-05-09T08:18:32.340Z,16.57
2024-05-09T08:20:59.288Z,15.90
2024-05-09T08:23:26.178Z,16.32
2024-05-09T08:25:55.774Z,15.91
2024-05-09T08:28:22.450Z,16.27
2024-05-09T08:30:51.199Z,16.20
2024-05-09T08:33:18.158Z,16.05
2024-05-09T08:35:45.045Z,16.91
2024-05-09T08:38:20.911Z,17.64
2024-05-09T08:40:48.802Z,17.44
2024-05-09T08:43:17.406Z,17.62
2024-05-09T08:45:49.884Z,17.05
2024-05-09T08:48:19.756Z,16.60
2024-05-09T08:50:53.089Z,16.91
2024-05-09T08:53:19.892Z,17.00
2024-05-09T08:55:46.730Z,17.12
2024-05-09T08:58:20.478Z,16.79
2024-05-09T09:00:48.435Z,16.89
2024-05-09T09:03:18.552Z,16.87
2024-05-09T09:05:54.619Z,17.38
2024-05-09T09:08:21.324Z,17.08
2024-05-09T09:10:49.115Z,16.53
2024-05-09T09:13:28.089Z,17.21
2024-05-09T09:15:59.721Z,17.15
2024-05-09T09:18:35.883Z,17.29
2024-05-09T09:21:03.430Z,17.10
2024-05-09T09:23:30.652Z,17.10
2024-05-09T09:26:00.851Z,17.17
2024-05-09T09:28:27.607Z,16.99
2024-05-09T09:31:00.884Z,17.48
2024-05-09T09:33:31.334Z,17.08
2024-05-09T09:35:58.280Z,17.05
2024-05-09T09:38:26.528Z,17.17
2024-05-09T09:40:53.156Z,17.42
2024-05-09T09:43:21.678Z,17.24
2024-05-09T09:45:51.531Z,17.14
2024-05-09T09:48:21.378Z,16.84
2024-05-09T09:50:48.763Z,17.14
2024-05-09T09:53:16.136Z,17.32
2024-05-09T09:55:43.465Z,17.02
2024-05-09T09:58:13.450Z,17.49
2024-05-09T10:00:41.839Z,17.20
2024-05-09T10:03:08.685Z,17.50
2024-05-09T10:05:36.310Z,17.81
2024-05-09T10:08:08.032Z,17.64
2024-05-09T10:10:36.075Z,17.88
2024-05-09T10:13:04.552Z,17.62
2024-05-09T10:15:52.632Z,17.62
2024-05-09T10:18:28.113Z,17.24
2024-05-09T10:20:57.047Z,17.46
2024-05-09T10:23:24.782Z,18.12
2024-05-09T10:26:01.847Z,18.10
2024-05-09T10:28:30.170Z,17.82
2024-05-09T10:31:12.983Z,18.10
2024-05-09T10:33:49.582Z,18.06
2024-05-09T10:36:24.388Z,18.12
2024-05-09T10:38:54.435Z,18.34
2024-05-09T10:41:22.636Z,17.87
2024-05-09T10:43:50.149Z,18.37
2024-05-09T10:46:19.042Z,18.51
2024-05-09T10:48:47.624Z,18.26
2024-05-09T10:51:14.654Z,18.24
2024-05-09T10:53:42.756Z,18.14
2024-05-09T10:56:10.004Z,18.21
2024-05-09T10:58:37.079Z,17.97
2024-05-09T11:01:07.002Z,17.95
2024-05-09T11:03:35.510Z,18.00
2024-05-09T11:06:02.872Z,18.54
2024-05-09T11:08:31.842Z,18.50
2024-05-09T11:11:02.279Z,18.38
2024-05-09T11:13:33.971Z,18.35
2024-05-09T11:16:01.610Z,18.78
2024-05-09T11:18:33.819Z,18.84
2024-05-09T11:21:03.545Z,18.79
2024-05-09T11:23:30.786Z,18.98
2024-05-09T11:25:58.631Z,18.67
2024-05-09T11:28:28.295Z,18.93
2024-05-09T11:31:06.455Z,18.90
2024-05-09T11:34:02.216Z,18.68
2024-05-09T11:36:28.856Z,18.84
2024-05-09T11:38:55.499Z,18.84
2024-05-09T11:41:22.142Z,19.11
2024-05-09T11:43:48.759Z,18.88
2024-05-09T11:46:15.507Z,19.48
2024-05-09T11:48:42.660Z,19.20
2024-05-09T11:51:09.331Z,18.89
2024-05-09T11:53:36.723Z,19.19
2024-05-09T11:56:06.038Z,18.84
2024-05-09T11:58:34.751Z,19.03
2024-05-09T12:01:02.249Z,19.45
2024-05-09T12:03:29.339Z,18.94
2024-05-09T12:05:56.369Z,18.64
2024-05-09T12:08:23.232Z,18.56
2024-05-09T12:10:50.004Z,18.98
2024-05-09T12:17:50.692Z,18.91
2024-05-09T12:21:59.904Z,19.34
2024-05-09T12:24:24.809Z,19.36
2024-05-09T12:34:01.192Z,19.19
2024-05-09T12:36:28.660Z,19.51
2024-05-09T12:38:55.505Z,19.36
2024-05-09T12:41:24.553Z,19.57
2024-05-09T12:43:51.150Z,19.46
2024-05-09T12:46:20.499Z,19.64
2024-05-09T12:48:47.381Z,19.72
2024-05-09T12:51:14.093Z,19.93
2024-05-09T12:53:40.649Z,20.21
2024-05-09T12:56:09.387Z,19.90
2024-05-09T12:58:36.633Z,19.86
2024-05-09T13:01:03.489Z,20.02
2024-05-09T13:03:30.313Z,19.88
2024-05-09T13:05:57.347Z,19.81
2024-05-09T13:08:24.230Z,20.06
2024-05-09T13:10:51.281Z,20.01
2024-05-09T13:13:18.109Z,20.47
2024-05-09T13:15:44.982Z,20.08
2024-05-09T13:18:11.837Z,20.27
2024-05-09T13:20:38.486Z,20.48
2024-05-09T13:23:06.734Z,20.41
2024-05-09T13:25:35.115Z,20.22
2024-05-09T13:28:02.470Z,19.95
2024-05-09T13:30:38.095Z,20.45
2024-05-09T13:33:08.758Z,20.56
2024-05-09T13:35:36.216Z,20.80
2024-05-09T13:38:03.979Z,20.56
2024-05-09T13:40:40.237Z,20.22
2024-05-09T13:43:07.125Z,20.51
2024-05-09T13:45:39.718Z,20.70
2024-05-09T13:48:07.191Z,20.00
2024-05-09T13:50:36.281Z,20.46
2024-05-09T13:53:11.070Z,20.56
2024-05-09T13:55:38.808Z,20.37
2024-05-09T13:58:06.483Z,20.30
2024-05-09T14:00:43.894Z,20.44
2024-05-09T14:03:16.509Z,20.89
2024-05-09T14:05:44.516Z,20.96
2024-05-09T14:08:11.966Z,21.23
2024-05-09T14:10:44.543Z,20.87
2024-05-09T14:13:11.884Z,20.78
2024-05-09T14:15:38.653Z,21.22
2024-05-09T14:18:13.113Z,20.99
2024-05-09T14:20:43.732Z,21.05
2024-05-09T14:26:10.581Z,21.19
2024-05-09T14:29:27.003Z,20.54
2024-05-09T14:31:53.809Z,20.94
2024-05-09T14:34:20.823Z,21.11
2024-05-09T14:36:47.611Z,21.15
2024-05-09T14:39:14.276Z,21.24
2024-05-09T14:41:41.066Z,21.10
2024-05-09T14:45:02.513Z,20.95
2024-05-09T14:47:59.595Z,21.34
2024-05-09T14:50:34.700Z,20.62
2024-05-09T14:53:07.817Z,20.96
2024-05-09T14:55:37.455Z,20.63
2024-05-09T14:58:11.964Z,20.99
2024-05-09T15:00:45.939Z,20.75
2024-05-09T15:03:16.953Z,20.94
2024-05-09T15:05:44.156Z,20.98
2024-05-09T15:08:10.986Z,21.18
2024-05-09T15:10:41.449Z,21.62
2024-05-09T15:13:09.842Z,21.59
2024-05-09T15:15:38.183Z,20.76
2024-05-09T15:18:06.194Z,20.60
2024-05-09T15:20:36.194Z,20.94
2024-05-09T15:23:05.511Z,20.96
2024-05-09T15:25:33.775Z,20.26
2024-05-09T15:28:00.749Z,20.93
2024-05-09T15:30:31.815Z,21.18
2024-05-09T15:33:01.421Z,21.57
2024-05-09T15:35:28.283Z,21.12
2024-05-09T15:37:55.086Z,21.57
2024-05-09T15:40:31.036Z,21.30
2024-05-09T15:43:05.387Z,21.50
2024-05-09T15:45:32.382Z,21.11
2024-05-09T15:47:59.560Z,20.92
2024-05-09T15:50:36.196Z,21.16
2024-05-09T15:53:07.022Z,21.08
2024-05-09T15:55:34.848Z,20.82
2024-05-09T15:58:06.194Z,20.95
2024-05-09T16:00:38.562Z,20.04
2024-05-09T16:03:13.252Z,20.19
2024-05-09T16:05:41.491Z,20.26
2024-05-09T16:08:08.686Z,20.15
2024-05-09T16:10:37.645Z,20.39
2024-05-09T16:13:05.384Z,20.17
2024-05-09T16:15:32.301Z,20.17
2024-05-09T16:17:59.897Z,19.83
2024-05-09T16:20:34.968Z,20.23
2024-05-09T16:23:07.275Z,20.01
2024-05-09T16:25:34.064Z,19.98
2024-05-09T16:28:00.890Z,19.80
2024-05-09T16:30:34.093Z,19.28
2024-05-09T16:33:05.831Z,19.43
2024-05-09T16:35:33.021Z,19.70
2024-05-09T16:38:02.248Z,19.52
2024-05-09T16:40:36.481Z,19.26
2024-05-09T16:43:06.983Z,19.15
2024-05-09T16:45:34.083Z,19.41
2024-05-09T16:48:04.763Z,19.30
2024-05-09T16:50:34.275Z,19.61
2024-05-09T16:53:03.748Z,19.22
2024-05-09T16:55:30.728Z,19.22
2024-05-09T16:57:58.061Z,19.06
2024-05-09T17:00:38.124Z,18.80
2024-05-09T17:03:09.887Z,18.80
2024-05-09T17:05:38.538Z,18.58
2024-05-09T17:08:06.151Z,18.87
2024-05-09T17:10:34.914Z,19.02
2024-05-09T17:13:04.417Z,18.98
2024-05-09T17:15:32.661Z,18.84
2024-05-09T17:17:59.601Z,18.75
2024-05-09T17:20:32.633Z,19.05
2024-05-09T17:23:03.505Z,18.62
2024-05-09T17:25:33.649Z,18.30
2024-05-09T17:28:06.265Z,18.35
2024-05-09T17:30:36.677Z,18.43
2024-05-09T17:33:06.736Z,18.45
2024-05-09T17:35:33.768Z,18.56
2024-05-09T17:38:01.698Z,18.49
2024-05-09T17:40:33.563Z,18.40
2024-05-09T17:43:03.509Z,18.20
2024-05-09T17:45:30.620Z,18.30
2024-05-09T17:47:57.814Z,18.26
2024-05-09T17:50:31.706Z,17.99
2024-05-09T17:53:02.585Z,18.18
2024-05-09T17:55:29.357Z,18.02
2024-05-09T17:57:56.951Z,17.82
2024-05-09T18:00:34.298Z,17.95
2024-05-09T18:03:06.484Z,17.92
2024-05-09T18:05:38.072Z,17.79
2024-05-09T18:08:08.445Z,17.69
2024-05-09T18:10:40.496Z,17.60
2024-05-09T18:13:16.417Z,17.52
2024-05-09T18:15:43.680Z,17.40
2024-05-09T18:18:11.562Z,17.29
2024-05-09T18:20:43.848Z,17.25
2024-05-09T18:23:17.831Z,17.15
2024-05-09T18:25:46.416Z,17.10
2024-05-09T18:28:13.754Z,16.97
2024-05-09T18:30:41.552Z,16.89
2024-05-09T18:33:13.102Z,16.80
2024-05-09T18:35:44.115Z,16.69
2024-05-09T18:38:10.893Z,16.54
2024-05-09T18:40:38.812Z,16.53
2024-05-09T18:43:08.583Z,16.41
2024-05-09T18:45:41.276Z,16.31
2024-05-09T18:48:09.853Z,16.41
2024-05-09T18:50:40.585Z,16.41
2024-05-09T18:53:12.816Z,16.29
2024-05-09T18:55:41.166Z,16.35
2024-05-09T18:58:08.445Z,16.27
2024-05-09T19:00:38.527Z,16.24
2024-05-09T19:03:13.284Z,16.20
2024-05-09T19:05:45.502Z,15.88
2024-05-09T19:08:16.309Z,15.83
2024-05-09T19:10:46.717Z,15.71
2024-05-09T19:13:18.490Z,15.63
2024-05-09T19:15:47.478Z,15.58
2024-05-09T19:18:17.396Z,15.65
2024-05-09T19:20:58.896Z,15.38
2024-05-09T19:23:32.543Z,15.20
2024-05-09T19:25:59.670Z,15.26
2024-05-09T19:28:30.583Z,15.33
2024-05-09T19:31:05.224Z,15.24
2024-05-09T19:33:33.593Z,15.05
2024-05-09T19:36:01.945Z,15.12
2024-05-09T19:38:31.431Z,15.00
2024-05-09T19:41:15.894Z,14.70
2024-05-09T19:43:45.785Z,14.81
2024-05-09T19:46:14.131Z,14.84
2024-05-09T19:48:45.664Z,14.70
2024-05-09T19:51:14.127Z,14.61
2024-05-09T19:53:45.564Z,14.66
2024-05-09T19:56:12.626Z,14.61
2024-05-09T19:58:42.434Z,14.64
2024-05-09T20:01:12.732Z,14.46
2024-05-09T20:03:42.586Z,14.43
2024-05-09T20:06:14.553Z,14.37
2024-05-09T20:08:47.293Z,14.43
2024-05-09T20:11:20.764Z,14.29
2024-05-09T20:13:59.144Z,14.19
2024-05-09T20:16:29.192Z,14.31
2024-05-09T20:18:56.480Z,14.23
2024-05-09T20:21:24.210Z,14.23
2024-05-09T20:23:51.206Z,14.20
2024-05-09T20:26:30.936Z,14.02
2024-05-09T20:31:45.170Z,14.11
2024-05-09T20:34:29.815Z,14.02
2024-05-09T20:37:01.057Z,13.95
2024-05-09T20:39:35.309Z,13.92
2024-05-09T20:42:26.736Z,13.82
2024-05-09T20:45:20.251Z,13.79
2024-05-09T20:47:45.473Z,13.78
2024-05-09T20:50:29.313Z,13.74
2024-05-09T20:53:06.122Z,13.63
2024-05-09T20:58:40.191Z,13.61
2024-05-09T21:01:08.607Z,13.73
2024-05-09T21:03:38.099Z,13.64
2024-05-09T21:06:06.486Z,13.55
2024-05-09T21:08:33.373Z,13.56
2024-05-09T21:11:00.367Z,13.72
2024-05-09T21:13:27.329Z,13.32
2024-05-09T21:15:54.117Z,13.46
2024-05-09T21:18:20.802Z,13.69
2024-05-09T21:20:47.511Z,13.16
2024-05-09T21:23:14.108Z,13.24
2024-05-09T21:25:40.702Z,13.42
2024-05-09T21:28:07.533Z,13.27
2024-05-09T21:30:41.271Z,13.33
2024-05-09T21:33:11.182Z,13.18
2024-05-09T21:35:39.576Z,13.10
2024-05-09T21:38:07.244Z,13.06
2024-05-09T21:40:36.028Z,13.19
2024-05-09T21:43:07.749Z,13.26
2024-05-09T21:45:35.661Z,13.15
2024-05-09T21:48:03.730Z,13.17
2024-05-09T21:50:37.036Z,13.31
2024-05-09T21:53:07.588Z,13.10
2024-05-09T21:55:34.424Z,13.33
2024-05-09T21:58:01.296Z,13.11
2024-05-09T22:00:35.513Z,13.29
2024-05-09T22:03:06.199Z,13.12
2024-05-09T22:05:33.443Z,13.12
2024-05-09T22:08:00.566Z,13.21
2024-05-09T22:10:33.354Z,13.45
2024-05-09T22:13:02.406Z,12.99
2024-05-09T22:15:29.206Z,13.00
2024-05-09T22:17:57.160Z,13.36
2024-05-09T22:20:33.101Z,13.17
2024-05-09T22:23:04.369Z,13.00
2024-05-09T22:25:32.179Z,13.01
2024-05-09T22:28:02.959Z,13.06
2024-05-09T22:32:59.496Z,13.20
2024-05-09T22:35:26.023Z,13.01
2024-05-09T22:37:52.571Z,12.87
2024-05-09T22:40:28.361Z,12.71
2024-05-09T22:43:04.809Z,12.87
2024-05-09T22:45:31.476Z,13.09
2024-05-09T22:47:58.284Z,13.15
2024-05-09T22:50:27.068Z,12.93
2024-05-09T22:52:58.944Z,13.00
2024-05-09T22:55:25.532Z,13.15
2024-05-09T22:57:52.294Z,13.02
2024-05-09T23:00:22.043Z,13.11
2024-05-09T23:02:55.302Z,12.94
2024-05-09T23:05:22.116Z,12.92
2024-05-09T23:07:48.794Z,13.02
2024-05-09T23:10:25.183Z,13.09
2024-05-09T23:12:58.688Z,13.10
2024-05-09T23:15:25.419Z,12.97
2024-05-09T23:17:52.220Z,12.80
2024-05-09T23:20:29.666Z,13.01
2024-05-09T23:23:03.240Z,12.96
2024-05-09T23:25:29.838Z,12.98
2024-05-09T23:27:56.665Z,12.97
2024-05-09T23:30:33.152Z,12.69
2024-05-09T23:33:05.229Z,12.58
2024-05-09T23:35:32.000Z,12.50
2024-05-09T23:37:58.575Z,12.62
2024-05-09T23:40:37.054Z,12.70
2024-05-09T23:43:07.218Z,12.73
2024-05-09T23:45:34.314Z,12.82
2024-05-09T23:48:01.571Z,12.93
2024-05-09T23:50:34.574Z,12.93
2024-05-09T23:53:05.120Z,12.86
2024-05-09T23:55:32.210Z,12.82
2024-05-09T23:57:59.351Z,12.84
